createdAt,value
2018-04-26T00:02:07.890Z,17.60
2018-04-26T00:04:35.509Z,17.40
2018-04-26T00:07:03.086Z,17.30
2018-04-26T00:09:30.687Z,17.30
2018-04-26T00:11:58.287Z,17.20
2018-04-26T00:14:25.855Z,17.10
2018-04-26T00:16:53.431Z,17.00
2018-04-26T00:19:20.991Z,16.90
2018-04-26T00:21:48.598Z,16.90
2018-04-26T00:24:16.146Z,16.80
2018-04-26T00:26:43.720Z,16.80
2018-04-26T00:29:11.327Z,16.80
2018-04-26T00:31:38.871Z,16.70
2018-04-26T00:34:06.474Z,16.60
2018-04-26T00:36:34.086Z,16.40
2018-04-26T00:39:01.633Z,16.30
2018-04-26T00:41:29.177Z,16.10
2018-04-26T00:43:56.790Z,16.00
2018-04-26T00:46:24.353Z,15.70
2018-04-26T00:48:52.726Z,15.60
2018-04-26T00:51:33.008Z,15.60
2018-04-26T00:54:00.616Z,15.60
2018-04-26T00:56:28.158Z,15.60
2018-04-26T00:58:55.725Z,15.60
2018-04-26T01:01:23.299Z,15.50
2018-04-26T01:03:50.909Z,15.40
2018-04-26T01:06:18.488Z,15.30
2018-04-26T01:08:46.054Z,15.30
2018-04-26T01:11:13.619Z,15.20
2018-04-26T01:13:41.194Z,15.20
2018-04-26T01:16:08.803Z,15.20
2018-04-26T01:18:36.389Z,15.20
2018-04-26T01:21:03.963Z,15.20
2018-04-26T01:23:31.524Z,15.20
2018-04-26T01:25:59.124Z,15.20
2018-04-26T01:28:26.760Z,15.30
2018-04-26T01:30:54.304Z,15.20
2018-04-26T01:33:21.855Z,15.20
2018-04-26T01:35:49.460Z,15.10
2018-04-26T01:38:17.852Z,15.00
2018-04-26T01:40:45.525Z,15.00
2018-04-26T01:43:13.935Z,15.00
2018-04-26T01:45:41.505Z,14.90
2018-04-26T01:48:09.079Z,14.90
2018-04-26T01:50:36.683Z,14.90
2018-04-26T01:53:04.375Z,14.90
2018-04-26T01:55:31.940Z,14.90
2018-04-26T01:57:59.504Z,14.80
2018-04-26T02:00:27.128Z,14.70
2018-04-26T02:02:54.683Z,14.80
2018-04-26T02:05:22.271Z,14.80
2018-04-26T02:07:49.867Z,14.90
2018-04-26T02:10:17.451Z,14.80
2018-04-26T02:12:45.064Z,14.80
2018-04-26T02:15:12.697Z,14.80
2018-04-26T02:17:40.231Z,14.80
2018-04-26T02:20:07.799Z,14.80
2018-04-26T02:22:35.400Z,14.70
2018-04-26T02:25:02.995Z,14.70
2018-04-26T02:27:30.562Z,14.70
2018-04-26T02:29:58.126Z,14.70
2018-04-26T02:32:25.700Z,14.70
2018-04-26T02:34:53.303Z,14.60
2018-04-26T02:37:20.898Z,14.60
2018-04-26T02:39:48.514Z,14.60
2018-04-26T02:42:16.091Z,14.50
2018-04-26T02:44:43.635Z,14.50
2018-04-26T02:47:11.198Z,14.50
2018-04-26T02:49:38.782Z,14.50
2018-04-26T02:52:07.184Z,14.60
2018-04-26T02:54:34.750Z,14.60
2018-04-26T02:57:02.327Z,14.70
2018-04-26T02:59:29.915Z,14.70
2018-04-26T03:01:57.514Z,14.80
2018-04-26T03:04:25.102Z,14.90
2018-04-26T03:06:52.741Z,14.90
2018-04-26T03:09:20.318Z,14.90
2018-04-26T03:11:47.922Z,14.90
2018-04-26T03:14:15.500Z,14.90
2018-04-26T03:16:43.088Z,14.90
2018-04-26T03:19:10.643Z,14.80
2018-04-26T03:21:38.276Z,14.90
2018-04-26T03:24:05.836Z,14.80
2018-04-26T03:26:34.230Z,14.80
2018-04-26T03:29:01.800Z,14.80
2018-04-26T03:31:29.360Z,14.80
2018-04-26T03:33:56.935Z,14.80
2018-04-26T03:36:24.507Z,14.70
2018-04-26T03:38:52.043Z,14.70
2018-04-26T03:41:19.579Z,14.70
2018-04-26T03:43:47.240Z,14.70
2018-04-26T03:46:14.831Z,14.60
2018-04-26T03:48:42.378Z,14.40
2018-04-26T03:51:09.981Z,14.30
2018-04-26T03:53:37.579Z,14.20
2018-04-26T03:56:05.184Z,14.20
2018-04-26T03:58:32.807Z,14.20
2018-04-26T04:01:12.097Z,14.20
2018-04-26T04:03:51.412Z,14.20
2018-04-26T04:06:18.974Z,14.40
2018-04-26T04:08:46.559Z,14.50
2018-04-26T04:11:14.145Z,14.50
2018-04-26T04:13:41.732Z,14.50
2018-04-26T04:16:09.479Z,14.60
2018-04-26T04:18:37.078Z,14.40
2018-04-26T04:21:04.647Z,14.40
2018-04-26T04:23:32.231Z,14.40
2018-04-26T04:25:59.828Z,14.30
2018-04-26T04:28:27.459Z,14.30
2018-04-26T04:30:55.078Z,14.20
2018-04-26T04:33:22.666Z,14.10
2018-04-26T04:35:50.243Z,14.00
2018-04-26T04:38:19.028Z,13.90
2018-04-26T04:40:47.379Z,13.80
2018-04-26T04:43:14.952Z,13.80
2018-04-26T04:45:42.558Z,13.80
2018-04-26T04:48:10.936Z,13.90
2018-04-26T04:50:38.503Z,13.80
2018-04-26T04:53:06.063Z,13.80
2018-04-26T04:55:33.632Z,13.70
2018-04-26T04:58:01.203Z,13.40
2018-04-26T05:00:28.799Z,13.40
2018-04-26T05:02:56.375Z,13.40
2018-04-26T05:05:23.979Z,13.40
2018-04-26T05:07:51.566Z,13.50
2018-04-26T05:10:19.951Z,13.60
2018-04-26T05:12:48.415Z,13.70
2018-04-26T05:15:16.035Z,13.70
2018-04-26T05:17:43.608Z,13.70
2018-04-26T05:20:11.204Z,13.60
2018-04-26T05:22:38.772Z,13.50
2018-04-26T05:25:07.117Z,13.30
2018-04-26T05:27:34.762Z,13.30
2018-04-26T05:30:02.394Z,13.20
2018-04-26T05:32:29.899Z,13.10
2018-04-26T05:34:57.463Z,13.00
2018-04-26T05:37:25.035Z,12.80
2018-04-26T05:39:52.620Z,12.80
2018-04-26T05:42:20.217Z,12.70
2018-04-26T05:44:47.786Z,12.70
2018-04-26T05:47:15.410Z,12.70
2018-04-26T05:49:43.006Z,12.70
2018-04-26T05:52:10.548Z,12.70
2018-04-26T05:54:38.163Z,12.70
2018-04-26T05:57:06.541Z,12.70
2018-04-26T05:59:34.917Z,12.60
2018-04-26T06:02:03.253Z,12.40
2018-04-26T06:04:30.860Z,12.40
2018-04-26T06:06:58.434Z,12.30
2018-04-26T06:09:26.034Z,12.30
2018-04-26T06:11:53.668Z,12.20
2018-04-26T06:14:21.256Z,12.10
2018-04-26T06:16:48.904Z,12.10
2018-04-26T06:19:16.441Z,12.10
2018-04-26T06:21:44.040Z,12.00
2018-04-26T06:24:11.635Z,11.90
2018-04-26T06:26:39.972Z,11.90
2018-04-26T06:29:07.595Z,11.90
2018-04-26T06:31:35.148Z,12.00
2018-04-26T06:34:02.720Z,12.00
2018-04-26T06:36:30.310Z,12.00
2018-04-26T06:38:57.863Z,12.00
2018-04-26T06:41:25.429Z,11.90
2018-04-26T06:43:53.035Z,11.90
2018-04-26T06:46:20.628Z,11.70
2018-04-26T06:48:48.243Z,11.50
2018-04-26T06:51:15.851Z,11.50
2018-04-26T06:53:43.407Z,11.50
2018-04-26T06:56:11.024Z,11.50
2018-04-26T06:58:39.368Z,11.50
2018-04-26T07:01:06.918Z,11.50
2018-04-26T07:03:34.496Z,11.30
2018-04-26T07:06:02.079Z,11.40
2018-04-26T07:08:30.400Z,11.50
2018-04-26T07:10:57.980Z,11.50
2018-04-26T07:13:25.552Z,11.50
2018-04-26T07:15:53.108Z,11.60
2018-04-26T07:18:20.720Z,11.70
2018-04-26T07:20:48.322Z,11.80
2018-04-26T07:23:15.894Z,11.80
2018-04-26T07:25:43.487Z,11.90
2018-04-26T07:28:11.094Z,11.90
2018-04-26T07:30:38.722Z,11.90
2018-04-26T07:33:06.269Z,12.00
2018-04-26T07:35:33.911Z,11.90
2018-04-26T07:38:01.498Z,11.90
2018-04-26T07:40:29.053Z,11.90
2018-04-26T07:42:56.669Z,12.00
2018-04-26T07:45:24.423Z,12.00
2018-04-26T07:47:51.977Z,12.00
2018-04-26T07:50:19.571Z,11.90
2018-04-26T07:52:52.052Z,11.80
2018-04-26T07:55:20.416Z,11.80
2018-04-26T07:57:48.010Z,11.80
2018-04-26T08:00:15.590Z,11.90
2018-04-26T08:02:43.141Z,12.00
2018-04-26T08:05:10.763Z,12.10
2018-04-26T08:07:39.090Z,12.00
2018-04-26T08:10:06.655Z,12.00
2018-04-26T08:12:34.256Z,12.00
2018-04-26T08:15:01.892Z,12.00
2018-04-26T08:17:29.462Z,12.00
2018-04-26T08:19:57.033Z,12.00
2018-04-26T08:22:25.423Z,12.10
2018-04-26T08:24:53.080Z,12.00
2018-04-26T08:27:20.604Z,12.10
2018-04-26T08:29:48.244Z,12.00
2018-04-26T08:32:15.817Z,11.90
2018-04-26T08:34:43.433Z,11.80
2018-04-26T08:37:11.044Z,11.80
2018-04-26T08:39:38.615Z,11.80
2018-04-26T08:42:06.236Z,11.90
2018-04-26T08:44:33.835Z,11.80
2018-04-26T08:47:01.442Z,11.80
2018-04-26T08:49:29.013Z,11.80
2018-04-26T08:51:56.556Z,11.80
2018-04-26T08:54:24.206Z,11.80
2018-04-26T08:56:51.826Z,11.90
2018-04-26T08:59:19.795Z,11.80
2018-04-26T09:01:47.402Z,11.80
2018-04-26T09:04:14.984Z,11.80
2018-04-26T09:06:42.651Z,11.90
2018-04-26T09:09:10.224Z,11.90
2018-04-26T09:11:37.792Z,11.90
2018-04-26T09:14:05.403Z,12.00
2018-04-26T09:16:33.010Z,12.20
2018-04-26T09:19:00.595Z,12.20
2018-04-26T09:21:28.238Z,12.20
2018-04-26T09:23:55.807Z,12.20
2018-04-26T09:26:23.382Z,12.30
2018-04-26T09:28:51.758Z,12.30
2018-04-26T09:31:20.126Z,12.30
2018-04-26T09:33:48.479Z,12.30
2018-04-26T09:36:16.071Z,12.30
2018-04-26T09:38:43.673Z,12.30
2018-04-26T09:41:12.031Z,12.40
2018-04-26T09:46:32.827Z,12.40
2018-04-26T09:49:01.203Z,12.40
2018-04-26T09:51:29.580Z,12.40
2018-04-26T09:53:57.935Z,12.50
2018-04-26T09:56:25.523Z,12.50
2018-04-26T09:58:53.123Z,12.50
2018-04-26T10:01:20.707Z,12.60
2018-04-26T10:03:54.355Z,12.60
2018-04-26T10:06:28.366Z,12.60
2018-04-26T10:08:55.978Z,12.70
2018-04-26T10:11:23.562Z,12.70
2018-04-26T10:13:51.181Z,12.70
2018-04-26T10:16:18.787Z,12.70
2018-04-26T10:18:46.411Z,12.70
2018-04-26T10:21:14.001Z,12.70
2018-04-26T10:23:56.803Z,12.70
2018-04-26T10:26:24.350Z,12.70
2018-04-26T10:28:51.907Z,12.80
2018-04-26T10:31:19.679Z,12.80
2018-04-26T10:33:47.286Z,12.80
2018-04-26T10:36:14.906Z,12.70
2018-04-26T10:38:42.454Z,12.70
2018-04-26T10:41:10.004Z,12.70
2018-04-26T10:43:37.766Z,12.80
2018-04-26T10:46:05.322Z,12.90
2018-04-26T10:48:32.863Z,12.90
2018-04-26T10:51:00.432Z,12.90
2018-04-26T10:53:27.991Z,12.90
2018-04-26T10:55:55.603Z,13.00
2018-04-26T10:58:23.195Z,13.00
2018-04-26T11:00:50.735Z,13.00
2018-04-26T11:03:18.335Z,13.00
2018-04-26T11:05:45.887Z,13.00
2018-04-26T11:08:13.496Z,13.00
2018-04-26T11:10:41.127Z,13.10
2018-04-26T11:13:08.748Z,13.10
2018-04-26T11:15:36.518Z,13.20
2018-04-26T11:18:04.091Z,13.10
2018-04-26T11:20:31.639Z,13.10
2018-04-26T11:22:59.219Z,13.10
2018-04-26T11:25:26.805Z,13.10
2018-04-26T11:27:55.110Z,13.20
2018-04-26T11:30:22.727Z,13.20
2018-04-26T11:32:50.319Z,13.20
2018-04-26T11:35:17.939Z,13.20
2018-04-26T11:37:45.495Z,13.20
2018-04-26T11:40:13.135Z,13.30
2018-04-26T11:42:40.695Z,13.30
2018-04-26T11:45:08.286Z,13.30
2018-04-26T11:47:35.860Z,13.30
2018-04-26T11:50:03.443Z,13.30
2018-04-26T11:52:31.048Z,13.40
2018-04-26T11:54:58.619Z,13.40
2018-04-26T11:57:26.215Z,13.40
2018-04-26T11:59:53.911Z,13.50
2018-04-26T12:02:21.458Z,13.50
2018-04-26T12:04:49.000Z,13.60
2018-04-26T12:07:16.560Z,13.60
2018-04-26T12:09:44.167Z,13.60
2018-04-26T12:12:11.727Z,13.60
2018-04-26T12:14:39.275Z,13.60
2018-04-26T12:17:06.839Z,13.50
2018-04-26T12:19:34.383Z,13.50
2018-04-26T12:22:02.005Z,13.50
2018-04-26T12:24:30.335Z,13.60
2018-04-26T12:26:57.893Z,13.60
2018-04-26T12:29:25.548Z,13.60
2018-04-26T12:31:53.072Z,13.70
2018-04-26T12:34:20.642Z,13.70
2018-04-26T12:36:48.226Z,13.80
2018-04-26T12:39:15.843Z,13.80
2018-04-26T12:41:43.401Z,13.90
2018-04-26T12:44:11.028Z,14.00
2018-04-26T12:46:38.599Z,13.90
2018-04-26T12:49:06.186Z,14.00
2018-04-26T12:51:33.757Z,13.90
2018-04-26T12:54:01.295Z,13.70
2018-04-26T12:56:28.827Z,13.60
2018-04-26T12:58:56.446Z,13.60
2018-04-26T13:01:24.471Z,13.70
2018-04-26T13:03:52.072Z,13.70
2018-04-26T13:06:19.664Z,13.80
2018-04-26T13:08:47.255Z,13.80
2018-04-26T13:11:15.583Z,13.80
2018-04-26T13:13:43.132Z,13.80
2018-04-26T13:16:10.752Z,13.90
2018-04-26T13:18:38.326Z,13.90
2018-04-26T13:21:05.939Z,14.00
2018-04-26T13:23:33.571Z,14.10
2018-04-26T13:26:01.151Z,14.20
2018-04-26T13:28:28.686Z,14.40
2018-04-26T13:30:56.271Z,14.50
2018-04-26T13:33:23.852Z,14.60
2018-04-26T13:35:51.435Z,14.60
2018-04-26T13:38:19.047Z,14.60
2018-04-26T13:40:46.647Z,14.50
2018-04-26T13:43:14.993Z,14.60
2018-04-26T13:45:42.602Z,14.60
2018-04-26T13:48:10.177Z,14.70
2018-04-26T13:50:37.715Z,14.70
2018-04-26T13:53:05.302Z,14.70
2018-04-26T13:55:32.889Z,14.70
2018-04-26T13:58:00.471Z,14.70
2018-04-26T14:00:28.075Z,14.70
2018-04-26T14:02:55.691Z,14.70
2018-04-26T14:05:23.579Z,14.70
2018-04-26T14:07:51.147Z,14.70
2018-04-26T14:10:18.756Z,14.60
2018-04-26T14:12:46.351Z,14.70
2018-04-26T14:15:13.959Z,14.60
2018-04-26T14:17:41.558Z,14.70
2018-04-26T14:20:09.492Z,14.70
2018-04-26T14:22:37.077Z,14.70
2018-04-26T14:25:04.632Z,14.70
2018-04-26T14:27:32.235Z,14.70
2018-04-26T14:29:59.787Z,14.80
2018-04-26T14:32:27.379Z,14.80
2018-04-26T14:34:54.990Z,14.80
2018-04-26T14:37:22.578Z,14.80
2018-04-26T14:39:50.131Z,14.90
2018-04-26T14:42:17.752Z,14.90
2018-04-26T14:44:45.351Z,14.90
2018-04-26T14:47:12.923Z,14.90
2018-04-26T14:49:40.529Z,14.80
2018-04-26T14:52:08.113Z,14.80
2018-04-26T14:54:35.676Z,14.80
2018-04-26T14:57:03.295Z,14.90
2018-04-26T14:59:30.832Z,14.90
2018-04-26T15:01:58.384Z,14.80
2018-04-26T15:04:25.950Z,14.80
2018-04-26T15:06:53.572Z,14.90
2018-04-26T15:09:21.190Z,14.90
2018-04-26T15:11:48.787Z,15.00
2018-04-26T15:14:16.399Z,15.00
2018-04-26T15:16:43.955Z,15.10
2018-04-26T15:19:11.535Z,15.00
2018-04-26T15:21:39.241Z,15.10
2018-04-26T15:24:06.736Z,15.10
2018-04-26T15:26:34.277Z,15.10
2018-04-26T15:29:01.921Z,15.10
2018-04-26T15:31:30.270Z,15.00
2018-04-26T15:33:57.851Z,15.00
2018-04-26T15:36:25.459Z,14.90
2018-04-26T15:38:53.087Z,14.90
2018-04-26T15:41:20.575Z,14.90
2018-04-26T15:43:48.163Z,15.00
2018-04-26T15:46:16.543Z,15.10
2018-04-26T15:48:44.119Z,15.10
2018-04-26T15:51:11.707Z,15.20
2018-04-26T15:53:51.074Z,15.30
2018-04-26T15:56:24.483Z,15.30
2018-04-26T15:59:16.676Z,15.20
2018-04-26T16:02:19.587Z,15.20
2018-04-26T16:04:59.027Z,15.20
2018-04-26T16:07:53.977Z,15.20
2018-04-26T16:10:39.031Z,15.10
2018-04-26T16:13:24.243Z,15.10
2018-04-26T16:16:09.304Z,15.10
2018-04-26T16:18:48.754Z,15.10
2018-04-26T16:21:34.023Z,15.10
2018-04-26T16:24:18.966Z,15.20
2018-04-26T16:27:04.028Z,15.10
2018-04-26T16:29:43.495Z,15.10
2018-04-26T16:32:28.506Z,15.10
2018-04-26T16:35:13.600Z,15.00
2018-04-26T16:37:58.406Z,15.00
2018-04-26T16:40:25.994Z,15.00
2018-04-26T16:42:53.598Z,15.00
2018-04-26T16:45:21.168Z,14.90
2018-04-26T16:47:48.762Z,14.90
2018-04-26T16:50:16.307Z,14.90
2018-04-26T16:52:43.931Z,14.90
2018-04-26T16:55:12.057Z,14.80
2018-04-26T16:57:39.644Z,14.80
2018-04-26T17:00:07.203Z,14.70
2018-04-26T17:02:34.783Z,14.70
2018-04-26T17:05:02.461Z,14.60
2018-04-26T17:07:30.027Z,14.60
2018-04-26T17:09:57.596Z,14.60
2018-04-26T17:12:25.216Z,14.50
2018-04-26T17:14:52.798Z,14.40
2018-04-26T17:17:20.351Z,14.30
2018-04-26T17:19:47.949Z,14.20
2018-04-26T17:22:15.547Z,14.00
2018-04-26T17:24:43.114Z,13.90
2018-04-26T17:27:10.675Z,13.90
2018-04-26T17:29:38.244Z,13.90
2018-04-26T17:32:05.848Z,13.80
2018-04-26T17:34:33.415Z,13.80
2018-04-26T17:37:00.974Z,13.70
2018-04-26T17:39:28.555Z,13.60
2018-04-26T17:42:05.734Z,13.50
2018-04-26T17:44:33.343Z,13.50
2018-04-26T17:47:00.931Z,13.50
2018-04-26T17:49:28.507Z,13.50
2018-04-26T17:51:56.120Z,13.40
2018-04-26T17:54:23.715Z,13.40
2018-04-26T17:56:51.319Z,13.40
2018-04-26T17:59:18.882Z,13.40
2018-04-26T18:01:46.456Z,13.20
2018-04-26T18:04:14.059Z,13.00
2018-04-26T18:06:41.679Z,12.80
2018-04-26T18:09:09.245Z,12.60
2018-04-26T18:11:36.832Z,12.50
2018-04-26T18:14:04.444Z,12.50
2018-04-26T18:16:32.015Z,12.40
2018-04-26T18:18:59.643Z,12.30
2018-04-26T18:21:27.191Z,12.10
2018-04-26T18:23:54.807Z,12.00
2018-04-26T18:26:22.367Z,11.90
2018-04-26T18:28:49.946Z,11.80
2018-04-26T18:31:17.535Z,11.80
2018-04-26T18:33:45.126Z,11.70
2018-04-26T18:36:12.667Z,11.70
2018-04-26T18:38:40.249Z,11.70
2018-04-26T18:41:07.814Z,11.80
2018-04-26T18:43:35.410Z,11.70
2018-04-26T18:46:03.732Z,11.70
2018-04-26T18:48:31.302Z,11.60
2018-04-26T18:50:58.992Z,11.60
2018-04-26T18:53:26.527Z,11.60
2018-04-26T18:55:54.082Z,11.60
2018-04-26T18:58:21.688Z,11.60
2018-04-26T19:00:50.003Z,11.60
2018-04-26T19:03:17.579Z,11.50
2018-04-26T19:05:45.175Z,11.60
2018-04-26T19:08:12.755Z,11.50
2018-04-26T19:10:40.356Z,11.60
2018-04-26T19:13:07.974Z,11.60
2018-04-26T19:15:36.285Z,11.60
2018-04-26T19:18:03.916Z,11.60
2018-04-26T19:20:31.464Z,11.60
2018-04-26T19:23:04.002Z,11.50
2018-04-26T19:25:31.575Z,11.50
2018-04-26T19:27:59.139Z,11.40
2018-04-26T19:30:26.740Z,11.30
2018-04-26T19:32:54.308Z,11.30
2018-04-26T19:35:21.891Z,11.20
2018-04-26T19:37:49.499Z,11.20
2018-04-26T19:40:17.059Z,11.10
2018-04-26T19:42:45.395Z,11.00
2018-04-26T19:45:13.207Z,11.00
2018-04-26T19:47:40.796Z,11.00
2018-04-26T19:50:08.354Z,11.00
2018-04-26T19:52:36.701Z,10.90
2018-04-26T19:55:04.278Z,10.90
2018-04-26T19:57:31.870Z,10.80
2018-04-26T19:59:59.431Z,10.70
2018-04-26T20:02:26.978Z,10.60
2018-04-26T20:04:54.558Z,10.50
2018-04-26T20:07:22.146Z,10.50
2018-04-26T20:09:50.505Z,10.60
2018-04-26T20:12:18.126Z,10.60
2018-04-26T20:14:45.724Z,10.70
2018-04-26T20:17:13.321Z,10.70
2018-04-26T20:19:40.876Z,10.60
2018-04-26T20:22:08.487Z,10.50
2018-04-26T20:24:36.042Z,10.40
2018-04-26T20:27:03.679Z,10.40
2018-04-26T20:29:31.262Z,10.40
2018-04-26T20:31:58.856Z,10.40
2018-04-26T20:34:26.466Z,10.30
2018-04-26T20:36:54.049Z,10.20
2018-04-26T20:39:21.631Z,10.10
2018-04-26T20:41:54.995Z,9.90
2018-04-26T20:44:34.322Z,9.80
2018-04-26T20:47:01.896Z,9.80
2018-04-26T20:49:29.456Z,9.70
2018-04-26T20:51:57.018Z,9.80
2018-04-26T20:54:24.626Z,9.90
2018-04-26T20:56:52.221Z,10.00
2018-04-26T20:59:19.803Z,10.00
2018-04-26T21:01:47.372Z,9.90
2018-04-26T21:04:14.919Z,9.80
2018-04-26T21:06:42.516Z,9.80
2018-04-26T21:09:10.130Z,9.80
2018-04-26T21:11:37.766Z,9.90
2018-04-26T21:14:05.391Z,9.90
2018-04-26T21:16:32.895Z,9.90
2018-04-26T21:19:00.461Z,10.00
2018-04-26T21:21:28.003Z,10.00
2018-04-26T21:23:55.540Z,10.10
2018-04-26T21:26:23.146Z,10.00
2018-04-26T21:28:50.735Z,10.00
2018-04-26T21:31:19.038Z,10.00
2018-04-26T21:33:46.610Z,10.00
2018-04-26T21:36:14.239Z,10.00
2018-04-26T21:38:42.602Z,10.00
2018-04-26T21:41:10.177Z,10.00
2018-04-26T21:43:47.580Z,10.00
2018-04-26T21:46:15.162Z,10.10
2018-04-26T21:48:42.739Z,10.00
2018-04-26T21:51:15.910Z,10.00
2018-04-26T21:53:49.383Z,9.90
2018-04-26T21:56:22.562Z,9.80
2018-04-26T21:58:55.833Z,9.70
2018-04-26T22:01:29.064Z,9.70
2018-04-26T22:04:02.211Z,9.80
2018-04-26T22:06:29.798Z,9.80
2018-04-26T22:08:58.163Z,9.80
2018-04-26T22:11:26.522Z,9.80
2018-04-26T22:13:54.271Z,9.80
2018-04-26T22:16:21.812Z,9.60
2018-04-26T22:18:49.348Z,9.50
2018-04-26T22:21:16.953Z,9.50
2018-04-26T22:23:49.588Z,9.50
2018-04-26T22:26:17.179Z,9.50
2018-04-26T22:28:44.762Z,9.50
2018-04-26T22:31:12.359Z,9.50
2018-04-26T22:33:40.690Z,9.30
2018-04-26T22:36:08.259Z,9.30
2018-04-26T22:38:35.856Z,9.30
2018-04-26T22:41:03.415Z,9.20
2018-04-26T22:43:31.123Z,9.10
2018-04-26T22:45:58.715Z,9.10
2018-04-26T22:48:26.245Z,9.00
2018-04-26T22:50:53.795Z,9.00
2018-04-26T22:53:21.398Z,9.00
2018-04-26T22:55:49.001Z,8.80
2018-04-26T22:58:16.561Z,8.70
2018-04-26T23:00:44.134Z,8.70
2018-04-26T23:03:11.706Z,8.70
2018-04-26T23:05:39.259Z,8.70
2018-04-26T23:08:06.850Z,8.50
2018-04-26T23:10:35.150Z,8.40
2018-04-26T23:13:02.711Z,8.40
2018-04-26T23:15:30.321Z,8.50
2018-04-26T23:17:57.908Z,8.50
2018-04-26T23:20:25.515Z,8.50
2018-04-26T23:22:53.095Z,8.40
2018-04-26T23:25:20.767Z,8.30
2018-04-26T23:27:48.254Z,8.30
2018-04-26T23:30:15.815Z,8.30
2018-04-26T23:32:43.410Z,8.30
2018-04-26T23:35:10.971Z,8.30
2018-04-26T23:37:38.514Z,8.20
2018-04-26T23:40:06.050Z,8.20
2018-04-26T23:42:33.610Z,8.20
2018-04-26T23:45:01.954Z,8.10
2018-04-26T23:47:29.527Z,8.10
2018-04-26T23:49:57.143Z,8.10
2018-04-26T23:52:24.775Z,8.10
2018-04-26T23:54:52.363Z,8.10
2018-04-26T23:57:19.911Z,8.20
2018-04-26T23:59:47.480Z,8.30
